createdAt,value
2023-03-14T00:00:30.267Z,87.53
2023-03-14T00:01:30.261Z,87.79
2023-03-14T00:02:30.309Z,87.79
2023-03-14T00:03:30.217Z,88.00
2023-03-14T00:04:30.200Z,87.29
2023-03-14T00:05:30.182Z,87.29
2023-03-14T00:06:30.168Z,87.29
2023-03-14T00:07:30.153Z,87.49
2023-03-14T00:08:30.135Z,87.59
2023-03-14T00:09:30.116Z,87.24
2023-03-14T00:10:30.108Z,87.04
2023-03-14T00:11:30.086Z,87.14
2023-03-14T00:12:30.067Z,86.83
2023-03-14T00:13:30.176Z,86.32
2023-03-14T00:14:30.038Z,86.12
2023-03-14T00:15:30.020Z,86.53
2023-03-14T00:16:30.036Z,86.53
2023-03-14T00:17:29.993Z,86.67
2023-03-14T00:18:30.007Z,87.29
2023-03-14T00:19:29.964Z,87.29
2023-03-14T00:20:29.940Z,87.29
2023-03-14T00:21:29.968Z,87.38
2023-03-14T00:22:29.908Z,87.65
2023-03-14T00:23:29.911Z,87.49
2023-03-14T00:24:29.874Z,87.29
2023-03-14T00:25:29.898Z,87.18
2023-03-14T00:26:29.870Z,87.90
2023-03-14T00:27:29.834Z,87.79
2023-03-14T00:28:29.817Z,87.70
2023-03-14T00:29:29.861Z,87.94
2023-03-14T00:30:29.779Z,87.49
2023-03-14T00:31:29.925Z,87.63
2023-03-14T00:32:29.768Z,87.70
2023-03-14T00:33:29.736Z,87.79
2023-03-14T00:34:29.713Z,88.00
2023-03-14T00:35:29.709Z,87.59
2023-03-14T00:36:29.679Z,87.38
2023-03-14T00:37:29.662Z,87.49
2023-03-14T00:38:29.648Z,87.18
2023-03-14T00:39:29.627Z,87.70
2023-03-14T00:40:29.616Z,87.53
2023-03-14T00:41:29.596Z,87.73
2023-03-14T00:42:29.639Z,87.59
2023-03-14T00:43:29.584Z,87.94
2023-03-14T00:44:29.545Z,88.35
2023-03-14T00:45:29.545Z,88.56
2023-03-14T00:46:29.570Z,88.56
2023-03-14T00:47:29.496Z,88.96
2023-03-14T00:48:29.517Z,88.80
2023-03-14T00:49:29.470Z,88.24
2023-03-14T00:50:29.450Z,89.06
2023-03-14T00:51:29.431Z,88.90
2023-03-14T00:52:29.432Z,89.21
2023-03-14T00:53:29.438Z,89.27
2023-03-14T00:54:29.389Z,89.17
2023-03-14T00:55:29.367Z,89.42
2023-03-14T00:56:29.367Z,89.21
2023-03-14T00:57:29.345Z,89.51
2023-03-14T00:58:29.334Z,89.31
2023-03-14T00:59:29.310Z,89.42
2023-03-14T01:00:29.285Z,89.92
2023-03-14T01:01:29.313Z,90.03
2023-03-14T01:02:29.268Z,89.83
2023-03-14T01:03:29.261Z,89.83
2023-03-14T01:04:29.269Z,89.78
2023-03-14T01:05:29.205Z,89.47
2023-03-14T01:06:29.191Z,89.37
2023-03-14T01:07:29.222Z,89.58
2023-03-14T01:08:29.161Z,89.17
2023-03-14T01:09:29.148Z,89.17
2023-03-14T01:10:29.127Z,89.47
2023-03-14T01:11:29.136Z,89.06
2023-03-14T01:12:29.183Z,89.06
2023-03-14T01:13:29.089Z,89.06
2023-03-14T01:14:29.067Z,88.00
2023-03-14T01:15:29.046Z,88.65
2023-03-14T01:16:29.098Z,89.17
2023-03-14T01:17:29.062Z,88.14
2023-03-14T01:18:29.028Z,89.17
2023-03-14T01:19:29.021Z,89.06
2023-03-14T01:20:28.966Z,88.96
2023-03-14T01:21:28.948Z,88.96
2023-03-14T01:22:28.952Z,88.96
2023-03-14T01:23:28.971Z,89.37
2023-03-14T01:24:28.901Z,88.96
2023-03-14T01:25:28.884Z,88.86
2023-03-14T01:26:28.868Z,88.96
2023-03-14T01:27:28.856Z,87.94
2023-03-14T01:28:28.836Z,88.35
2023-03-14T01:29:28.881Z,88.65
2023-03-14T01:30:28.813Z,88.86
2023-03-14T01:31:28.872Z,88.76
2023-03-14T01:32:28.791Z,88.76
2023-03-14T01:33:28.765Z,88.76
2023-03-14T01:34:28.749Z,88.65
2023-03-14T01:35:28.769Z,88.56
2023-03-14T01:36:30.513Z,88.71
2023-03-14T01:37:28.698Z,88.20
2023-03-14T01:38:28.678Z,87.73
2023-03-14T01:39:28.708Z,87.79
2023-03-14T01:40:28.653Z,87.79
2023-03-14T01:41:28.644Z,87.79
2023-03-14T01:42:28.621Z,87.90
2023-03-14T01:43:28.602Z,87.53
2023-03-14T01:44:28.583Z,87.49
2023-03-14T01:45:28.651Z,87.94
2023-03-14T01:46:28.550Z,87.43
2023-03-14T01:47:28.556Z,88.00
2023-03-14T01:48:28.517Z,87.90
2023-03-14T01:49:28.516Z,87.90
2023-03-14T01:50:28.488Z,87.29
2023-03-14T01:51:28.484Z,87.49
2023-03-14T01:52:28.453Z,87.49
2023-03-14T01:53:28.478Z,87.29
2023-03-14T01:54:28.430Z,87.49
2023-03-14T01:55:28.405Z,86.88
2023-03-14T01:56:28.390Z,86.88
2023-03-14T01:57:28.374Z,86.77
2023-03-14T01:58:28.366Z,87.49
2023-03-14T01:59:28.381Z,87.29
2023-03-14T02:00:28.328Z,87.29
2023-03-14T02:01:28.308Z,87.29
2023-03-14T02:02:28.305Z,87.29
2023-03-14T02:03:28.340Z,87.90
2023-03-14T02:04:28.262Z,87.29
2023-03-14T02:05:28.288Z,87.49
2023-03-14T02:06:28.233Z,87.18
2023-03-14T02:07:28.211Z,87.18
2023-03-14T02:08:28.198Z,87.53
2023-03-14T02:09:28.203Z,87.79
2023-03-14T02:10:28.190Z,87.08
2023-03-14T02:11:28.146Z,87.59
2023-03-14T02:12:28.136Z,87.18
2023-03-14T02:13:28.117Z,88.04
2023-03-14T02:14:28.097Z,87.32
2023-03-14T02:15:28.082Z,87.70
2023-03-14T02:16:28.069Z,86.57
2023-03-14T02:17:28.047Z,86.26
2023-03-14T02:18:28.058Z,85.85
2023-03-14T02:19:28.020Z,85.91
2023-03-14T02:20:28.049Z,85.85
2023-03-14T02:21:27.996Z,86.02
2023-03-14T02:22:27.964Z,85.50
2023-03-14T02:23:27.948Z,86.32
2023-03-14T02:24:27.931Z,85.75
2023-03-14T02:25:27.924Z,85.40
2023-03-14T02:26:27.904Z,85.20
2023-03-14T02:27:27.888Z,85.30
2023-03-14T02:28:27.877Z,85.50
2023-03-14T02:29:27.864Z,85.40
2023-03-14T02:30:27.830Z,85.20
2023-03-14T02:31:27.872Z,84.89
2023-03-14T02:32:27.814Z,85.20
2023-03-14T02:33:27.781Z,85.91
2023-03-14T02:34:27.768Z,85.85
2023-03-14T02:35:27.753Z,85.91
2023-03-14T02:36:27.771Z,86.46
2023-03-14T02:37:27.770Z,87.59
2023-03-14T02:38:27.700Z,87.79
2023-03-14T02:39:27.684Z,87.49
2023-03-14T02:40:27.676Z,89.06
2023-03-14T02:41:27.649Z,89.06
2023-03-14T02:42:27.636Z,89.17
2023-03-14T02:43:27.662Z,89.98
2023-03-14T02:44:27.603Z,90.03
2023-03-14T02:45:27.587Z,90.75
2023-03-14T02:46:27.580Z,90.95
2023-03-14T02:47:27.583Z,90.54
2023-03-14T02:48:27.563Z,90.34
2023-03-14T02:49:27.523Z,90.69
2023-03-14T02:50:27.505Z,91.09
2023-03-14T02:51:27.484Z,91.30
2023-03-14T02:52:27.468Z,92.06
2023-03-14T02:53:27.549Z,92.47
2023-03-14T02:54:27.437Z,92.27
2023-03-14T02:55:27.420Z,92.51
2023-03-14T02:56:27.405Z,93.64
2023-03-14T02:57:27.385Z,94.36
2023-03-14T02:58:27.370Z,94.26
2023-03-14T02:59:27.352Z,95.23
2023-03-14T03:00:27.386Z,94.92
2023-03-14T03:01:27.396Z,94.61
2023-03-14T03:02:27.299Z,95.32
2023-03-14T03:03:27.316Z,95.64
2023-03-14T03:04:27.269Z,95.32
2023-03-14T03:05:27.250Z,95.84
2023-03-14T03:06:27.233Z,96.60
2023-03-14T03:07:27.218Z,96.70
2023-03-14T03:08:27.219Z,96.40
2023-03-14T03:09:27.191Z,96.19
2023-03-14T03:10:27.204Z,96.91
2023-03-14T03:11:27.176Z,96.60
2023-03-14T03:12:27.127Z,96.91
2023-03-14T03:13:27.119Z,96.95
2023-03-14T03:14:27.114Z,96.65
2023-03-14T03:15:27.104Z,96.95
2023-03-14T03:16:27.118Z,97.27
2023-03-14T03:17:27.041Z,97.22
2023-03-14T03:18:27.033Z,97.02
2023-03-14T03:19:27.009Z,96.95
2023-03-14T03:20:26.997Z,96.95
2023-03-14T03:21:26.980Z,97.16
2023-03-14T03:22:26.965Z,96.95
2023-03-14T03:23:26.948Z,96.44
2023-03-14T03:24:26.931Z,96.85
2023-03-14T03:25:26.972Z,95.83
2023-03-14T03:26:26.898Z,95.83
2023-03-14T03:27:34.231Z,96.03
2023-03-14T03:28:26.873Z,96.55
2023-03-14T03:29:26.846Z,96.14
2023-03-14T03:30:26.829Z,96.18
2023-03-14T03:31:26.837Z,96.34
2023-03-14T03:32:26.809Z,96.34
2023-03-14T03:33:26.790Z,95.52
2023-03-14T03:34:26.757Z,95.72
2023-03-14T03:35:26.741Z,95.42
2023-03-14T03:36:26.752Z,95.67
2023-03-14T03:37:26.733Z,95.52
2023-03-14T03:38:26.740Z,95.67
2023-03-14T03:39:26.675Z,96.08
2023-03-14T03:40:26.674Z,95.87
2023-03-14T03:41:26.999Z,96.18
2023-03-14T03:42:26.630Z,95.87
2023-03-14T03:43:26.608Z,95.77
2023-03-14T03:44:26.621Z,95.46
2023-03-14T03:45:26.566Z,95.56
2023-03-14T03:46:26.638Z,95.46
2023-03-14T03:47:26.545Z,96.08
2023-03-14T03:48:26.517Z,95.77
2023-03-14T03:49:26.523Z,96.28
2023-03-14T03:50:26.486Z,96.08
2023-03-14T03:51:26.471Z,96.39
2023-03-14T03:52:26.447Z,95.97
2023-03-14T03:53:33.303Z,95.87
2023-03-14T03:54:26.414Z,96.12
2023-03-14T03:55:26.423Z,96.73
2023-03-14T03:56:26.379Z,96.69
2023-03-14T03:57:26.380Z,96.59
2023-03-14T03:58:26.356Z,97.20
2023-03-14T03:59:26.324Z,97.05
2023-03-14T04:00:26.345Z,96.64
2023-03-14T04:01:26.288Z,96.84
2023-03-14T04:02:26.374Z,96.64
2023-03-14T04:03:26.318Z,97.05
2023-03-14T04:04:26.237Z,97.05
2023-03-14T04:05:26.246Z,97.45
2023-03-14T04:06:26.327Z,97.05
2023-03-14T04:07:26.182Z,96.90
2023-03-14T04:08:26.176Z,97.00
2023-03-14T04:09:26.164Z,96.64
2023-03-14T04:10:26.131Z,96.90
2023-03-14T04:11:26.113Z,96.84
2023-03-14T04:12:26.099Z,97.25
2023-03-14T04:13:26.108Z,97.05
2023-03-14T04:14:26.069Z,97.41
2023-03-14T04:15:26.052Z,97.10
2023-03-14T04:16:26.093Z,97.31
2023-03-14T04:17:26.011Z,96.84
2023-03-14T04:18:26.015Z,97.05
2023-03-14T04:19:25.991Z,96.69
2023-03-14T04:20:25.961Z,96.48
2023-03-14T04:21:25.937Z,96.48
2023-03-14T04:22:25.925Z,96.84
2023-03-14T04:23:25.902Z,96.39
2023-03-14T04:24:25.889Z,96.22
2023-03-14T04:25:25.905Z,96.90
2023-03-14T04:26:25.852Z,96.48
2023-03-14T04:27:25.839Z,96.59
2023-03-14T04:28:25.811Z,96.59
2023-03-14T04:29:25.846Z,96.80
2023-03-14T04:30:25.776Z,96.08
2023-03-14T04:31:25.835Z,96.03
2023-03-14T04:32:25.776Z,95.97
2023-03-14T04:33:25.723Z,96.55
2023-03-14T04:34:25.706Z,96.90
2023-03-14T04:35:25.686Z,96.39
2023-03-14T04:36:25.685Z,96.39
2023-03-14T04:37:25.681Z,96.59
2023-03-14T04:38:25.635Z,97.00
2023-03-14T04:39:25.625Z,97.00
2023-03-14T04:40:25.602Z,96.90
2023-03-14T04:41:25.615Z,96.69
2023-03-14T04:42:25.637Z,96.18
2023-03-14T04:43:25.548Z,96.18
2023-03-14T04:44:25.530Z,96.18
2023-03-14T04:45:25.524Z,96.18
2023-03-14T04:46:25.611Z,95.97
2023-03-14T04:47:25.479Z,96.08
2023-03-14T04:48:25.508Z,96.48
2023-03-14T04:49:25.438Z,96.69
2023-03-14T04:50:25.424Z,97.00
2023-03-14T04:51:25.404Z,96.90
2023-03-14T04:52:25.398Z,96.90
2023-03-14T04:53:25.385Z,96.69
2023-03-14T04:54:25.392Z,96.59
2023-03-14T04:55:25.342Z,96.48
2023-03-14T04:56:25.317Z,96.03
2023-03-14T04:57:25.345Z,95.93
2023-03-14T04:58:25.283Z,95.93
2023-03-14T04:59:25.280Z,95.93
2023-03-14T05:00:25.266Z,95.42
2023-03-14T05:01:25.334Z,95.42
2023-03-14T05:02:25.218Z,95.83
2023-03-14T05:03:25.260Z,95.42
2023-03-14T05:04:25.175Z,95.42
2023-03-14T05:05:25.157Z,95.52
2023-03-14T05:06:25.141Z,94.76
2023-03-14T05:07:25.131Z,94.76
2023-03-14T05:08:25.105Z,94.96
2023-03-14T05:09:25.094Z,94.90
2023-03-14T05:10:25.074Z,94.76
2023-03-14T05:11:25.054Z,94.96
2023-03-14T05:12:25.223Z,95.10
2023-03-14T05:13:25.015Z,95.06
2023-03-14T05:14:25.029Z,95.21
2023-03-14T05:15:24.992Z,95.10
2023-03-14T05:16:25.029Z,94.96
2023-03-14T05:17:24.949Z,95.06
2023-03-14T05:18:24.950Z,94.96
2023-03-14T05:19:24.911Z,95.21
2023-03-14T05:20:24.930Z,95.10
2023-03-14T05:21:24.881Z,95.10
2023-03-14T05:22:24.860Z,94.85
2023-03-14T05:23:24.846Z,94.96
2023-03-14T05:24:24.832Z,94.80
2023-03-14T05:25:25.021Z,94.90
2023-03-14T05:26:24.794Z,95.42
2023-03-14T05:27:24.813Z,95.57
2023-03-14T05:28:24.757Z,95.42
2023-03-14T05:29:24.738Z,95.93
2023-03-14T05:30:24.723Z,96.14
2023-03-14T05:31:24.750Z,95.93
2023-03-14T05:32:24.743Z,95.78
2023-03-14T05:33:24.683Z,95.57
2023-03-14T05:34:24.655Z,95.72
2023-03-14T05:35:24.646Z,95.52
2023-03-14T05:36:24.668Z,95.37
2023-03-14T05:37:24.650Z,95.31
2023-03-14T05:38:24.590Z,94.90
2023-03-14T05:39:24.594Z,95.17
2023-03-14T05:40:24.555Z,95.06
2023-03-14T05:41:24.534Z,95.06
2023-03-14T05:42:24.519Z,95.27
2023-03-14T05:43:24.533Z,95.17
2023-03-14T05:44:24.500Z,94.96
2023-03-14T05:45:24.469Z,95.17
2023-03-14T05:46:24.485Z,94.85
2023-03-14T05:47:24.434Z,94.85
2023-03-14T05:48:24.473Z,94.85
2023-03-14T05:49:24.406Z,94.85
2023-03-14T05:50:24.384Z,94.85
2023-03-14T05:51:24.376Z,95.17
2023-03-14T05:52:24.346Z,95.27
2023-03-14T05:53:24.345Z,94.96
2023-03-14T05:54:24.339Z,94.85
2023-03-14T05:55:24.318Z,94.65
2023-03-14T05:56:24.278Z,94.85
2023-03-14T05:57:24.302Z,94.85
2023-03-14T05:58:24.243Z,94.76
2023-03-14T05:59:24.225Z,94.70
2023-03-14T06:00:24.212Z,94.76
2023-03-14T06:01:24.189Z,94.96
2023-03-14T06:02:24.209Z,94.85
2023-03-14T06:03:24.283Z,94.65
2023-03-14T06:04:24.146Z,94.96
2023-03-14T06:05:24.125Z,94.76
2023-03-14T06:06:24.111Z,95.62
2023-03-14T06:07:24.086Z,95.21
2023-03-14T06:08:24.076Z,95.31
2023-03-14T06:09:24.085Z,95.37
2023-03-14T06:10:24.034Z,94.90
2023-03-14T06:11:24.016Z,95.37
2023-03-14T06:12:24.013Z,95.01
2023-03-14T06:13:23.985Z,94.80
2023-03-14T06:14:23.994Z,94.85
2023-03-14T06:15:23.946Z,95.06
2023-03-14T06:16:23.999Z,95.37
2023-03-14T06:17:23.913Z,94.85
2023-03-14T06:18:23.895Z,94.45
2023-03-14T06:19:23.879Z,94.14
2023-03-14T06:20:23.905Z,94.34
2023-03-14T06:21:23.954Z,94.24
2023-03-14T06:22:23.835Z,94.34
2023-03-14T06:23:23.838Z,94.55
2023-03-14T06:24:23.803Z,94.45
2023-03-14T06:25:23.778Z,94.45
2023-03-14T06:26:23.761Z,94.14
2023-03-14T06:27:23.743Z,94.34
2023-03-14T06:28:25.920Z,94.55
2023-03-14T06:29:23.710Z,94.85
2023-03-14T06:30:23.692Z,94.55
2023-03-14T06:31:23.685Z,94.76
2023-03-14T06:32:23.734Z,94.45
2023-03-14T06:33:23.641Z,94.76
2023-03-14T06:34:23.628Z,94.45
2023-03-14T06:35:23.611Z,94.34
2023-03-14T06:36:23.590Z,94.49
2023-03-14T06:37:23.639Z,94.39
2023-03-14T06:38:23.558Z,94.80
2023-03-14T06:39:23.546Z,95.01
2023-03-14T06:40:23.523Z,95.01
2023-03-14T06:41:23.517Z,94.80
2023-03-14T06:42:23.502Z,94.34
2023-03-14T06:43:23.519Z,94.39
2023-03-14T06:44:23.464Z,94.39
2023-03-14T06:45:23.443Z,94.34
2023-03-14T06:46:23.498Z,94.14
2023-03-14T06:47:23.406Z,93.83
2023-03-14T06:48:23.416Z,94.08
2023-03-14T06:49:23.382Z,93.93
2023-03-14T06:50:23.360Z,93.77
2023-03-14T06:51:23.340Z,93.21
2023-03-14T06:52:23.325Z,93.83
2023-03-14T06:53:23.347Z,94.08
2023-03-14T06:54:23.286Z,93.67
2023-03-14T06:55:23.268Z,94.04
2023-03-14T06:56:23.252Z,94.04
2023-03-14T06:57:23.232Z,93.87
2023-03-14T06:58:23.250Z,94.08
2023-03-14T06:59:23.202Z,94.18
2023-03-14T07:00:23.191Z,94.18
2023-03-14T07:01:23.243Z,94.08
2023-03-14T07:02:35.969Z,93.98
2023-03-14T07:03:23.132Z,93.98
2023-03-14T07:04:23.220Z,94.59
2023-03-14T07:05:23.097Z,94.29
2023-03-14T07:06:23.085Z,94.18
2023-03-14T07:07:23.066Z,94.29
2023-03-14T07:08:23.053Z,94.18
2023-03-14T07:09:23.106Z,94.39
2023-03-14T07:10:23.040Z,94.39
2023-03-14T07:11:22.997Z,94.59
2023-03-14T07:12:22.977Z,94.39
2023-03-14T07:13:22.972Z,94.29
2023-03-14T07:14:22.946Z,94.70
2023-03-14T07:15:22.931Z,95.42
2023-03-14T07:16:22.993Z,94.80
2023-03-14T07:17:22.899Z,95.10
2023-03-14T07:18:22.876Z,95.31
2023-03-14T07:19:22.866Z,95.31
2023-03-14T07:20:22.843Z,95.31
2023-03-14T07:21:22.827Z,95.01
2023-03-14T07:22:22.907Z,94.70
2023-03-14T07:23:22.804Z,95.42
2023-03-14T07:24:22.776Z,96.03
2023-03-14T07:25:22.800Z,95.83
2023-03-14T07:26:22.741Z,96.65
2023-03-14T07:27:22.728Z,97.31
2023-03-14T07:28:22.765Z,98.33
2023-03-14T07:29:22.693Z,98.13
2023-03-14T07:30:22.673Z,98.75
2023-03-14T07:31:22.707Z,98.85
2023-03-14T07:32:22.673Z,99.98
2023-03-14T07:33:22.641Z,99.93
2023-03-14T07:34:22.644Z,99.99
2023-03-14T07:35:22.601Z,99.99
2023-03-14T07:36:22.575Z,99.99
2023-03-14T07:37:22.562Z,99.99
2023-03-14T07:38:23.070Z,99.99
2023-03-14T07:39:22.569Z,99.99
2023-03-14T07:40:22.506Z,99.99
2023-03-14T07:41:22.499Z,99.99
2023-03-14T07:42:22.473Z,99.99
2023-03-14T07:43:22.464Z,99.99
2023-03-14T07:44:22.445Z,99.99
2023-03-14T07:45:24.972Z,99.99
2023-03-14T07:46:22.420Z,99.99
2023-03-14T07:47:22.400Z,99.99
2023-03-14T07:48:22.374Z,99.99
2023-03-14T07:49:22.380Z,99.99
2023-03-14T07:50:22.340Z,99.99
2023-03-14T07:51:22.323Z,99.99
2023-03-14T07:52:22.303Z,99.99
2023-03-14T07:53:22.289Z,99.99
2023-03-14T07:54:22.275Z,99.99
2023-03-14T07:55:22.258Z,99.99
2023-03-14T07:56:22.267Z,99.99
2023-03-14T07:57:22.419Z,99.99
2023-03-14T07:58:22.200Z,99.99
2023-03-14T07:59:22.190Z,99.99
2023-03-14T08:00:22.184Z,99.99
2023-03-14T08:01:22.149Z,99.99
2023-03-14T08:02:22.168Z,99.99
2023-03-14T08:03:22.119Z,99.99
2023-03-14T08:04:22.100Z,99.99
2023-03-14T08:05:22.078Z,99.99
2023-03-14T08:06:22.062Z,99.99
2023-03-14T08:07:22.046Z,99.99
2023-03-14T08:08:22.089Z,99.99
2023-03-14T08:09:22.025Z,99.99
2023-03-14T08:10:22.002Z,99.99
2023-03-14T08:11:21.975Z,99.99
2023-03-14T08:12:21.966Z,99.99
2023-03-14T08:13:21.960Z,99.99
2023-03-14T08:14:21.976Z,99.99
2023-03-14T08:15:21.909Z,99.99
2023-03-14T08:16:21.925Z,99.99
2023-03-14T08:17:21.875Z,99.99
2023-03-14T08:18:21.852Z,99.99
2023-03-14T08:19:21.874Z,99.99
2023-03-14T08:20:21.820Z,99.99
2023-03-14T08:21:21.804Z,99.99
2023-03-14T08:22:21.785Z,99.99
2023-03-14T08:23:21.767Z,99.99
2023-03-14T08:24:21.809Z,99.99
2023-03-14T08:25:21.860Z,99.99
2023-03-14T08:26:21.720Z,99.99
2023-03-14T08:27:21.704Z,99.99
2023-03-14T08:28:21.679Z,99.99
2023-03-14T08:29:21.668Z,99.99
2023-03-14T08:30:21.740Z,99.99
2023-03-14T08:31:21.764Z,99.99
2023-03-14T08:32:21.683Z,99.99
2023-03-14T08:33:21.596Z,99.99
2023-03-14T08:34:21.595Z,99.99
2023-03-14T08:35:21.561Z,99.99
2023-03-14T08:36:23.996Z,99.99
2023-03-14T08:37:26.606Z,99.99
2023-03-14T08:38:21.525Z,99.99
2023-03-14T08:39:21.609Z,99.99
2023-03-14T08:40:21.469Z,99.99
2023-03-14T08:41:21.456Z,99.99
2023-03-14T08:42:21.443Z,99.99
2023-03-14T08:43:21.429Z,99.99
2023-03-14T08:44:21.460Z,99.99
2023-03-14T08:45:21.418Z,99.99
2023-03-14T08:46:21.461Z,99.99
2023-03-14T08:47:21.356Z,99.99
2023-03-14T08:48:21.339Z,99.99
2023-03-14T08:49:21.346Z,99.99
2023-03-14T08:50:21.376Z,99.99
2023-03-14T08:51:21.294Z,99.99
2023-03-14T08:52:21.284Z,99.99
2023-03-14T08:53:21.263Z,99.99
2023-03-14T08:54:21.256Z,99.99
2023-03-14T08:55:21.219Z,99.99
2023-03-14T08:56:21.199Z,99.99
2023-03-14T08:57:21.180Z,99.99
2023-03-14T08:58:21.178Z,99.99
2023-03-14T08:59:21.159Z,99.99
2023-03-14T09:00:21.130Z,99.99
2023-03-14T09:01:21.182Z,99.99
2023-03-14T09:02:21.099Z,99.99
2023-03-14T09:03:21.134Z,99.99
2023-03-14T09:04:21.175Z,99.99
2023-03-14T09:05:21.051Z,99.99
2023-03-14T09:06:21.032Z,99.99
2023-03-14T09:07:21.015Z,99.99
2023-03-14T09:08:20.997Z,99.99
2023-03-14T09:09:20.981Z,99.99
2023-03-14T09:10:20.990Z,99.99
2023-03-14T09:11:20.961Z,99.99
2023-03-14T09:12:20.987Z,99.99
2023-03-14T09:13:20.954Z,99.99
2023-03-14T09:14:23.018Z,99.99
2023-03-14T09:15:20.894Z,99.99
2023-03-14T09:16:20.901Z,99.99
2023-03-14T09:17:20.904Z,99.99
2023-03-14T09:18:20.830Z,99.99
2023-03-14T09:19:20.808Z,99.99
2023-03-14T09:20:20.795Z,99.99
2023-03-14T09:21:20.776Z,99.99
2023-03-14T09:22:20.759Z,99.99
2023-03-14T09:23:20.776Z,99.99
2023-03-14T09:24:20.755Z,99.99
2023-03-14T09:25:20.711Z,99.99
2023-03-14T09:26:20.692Z,99.99
2023-03-14T09:27:20.681Z,99.99
2023-03-14T09:28:20.682Z,99.99
2023-03-14T09:29:20.722Z,99.99
2023-03-14T09:30:20.629Z,99.99
2023-03-14T09:31:20.677Z,99.99
2023-03-14T09:32:20.648Z,99.99
2023-03-14T09:33:20.604Z,99.99
2023-03-14T09:34:20.556Z,99.99
2023-03-14T09:35:20.634Z,99.99
2023-03-14T09:36:20.536Z,99.99
2023-03-14T09:37:20.509Z,99.99
2023-03-14T09:38:20.490Z,99.99
2023-03-14T09:39:20.476Z,99.99
2023-03-14T09:40:20.455Z,99.99
2023-03-14T09:41:20.445Z,99.99
2023-03-14T09:42:20.455Z,99.99
2023-03-14T09:43:20.409Z,99.99
2023-03-14T09:44:20.396Z,99.99
2023-03-14T09:45:22.107Z,99.99
2023-03-14T09:46:20.372Z,99.99
2023-03-14T09:47:20.382Z,99.99
2023-03-14T09:48:20.322Z,99.99
2023-03-14T09:49:20.318Z,99.99
2023-03-14T09:50:20.428Z,99.99
2023-03-14T09:51:20.268Z,99.99
2023-03-14T09:52:20.252Z,99.99
2023-03-14T09:53:20.245Z,99.99
2023-03-14T09:54:20.216Z,99.99
2023-03-14T09:55:20.199Z,99.99
2023-03-14T09:56:20.180Z,99.99
2023-03-14T09:57:20.170Z,99.99
2023-03-14T09:58:20.198Z,99.99
2023-03-14T09:59:20.137Z,99.99
2023-03-14T10:00:20.162Z,99.99
2023-03-14T10:01:20.155Z,99.99
2023-03-14T10:02:20.119Z,99.99
2023-03-14T10:03:20.064Z,99.99
2023-03-14T10:04:20.081Z,99.99
2023-03-14T10:05:20.133Z,99.99
2023-03-14T10:06:20.032Z,99.99
2023-03-14T10:07:19.996Z,99.99
2023-03-14T10:08:19.980Z,99.99
2023-03-14T10:09:19.961Z,99.99
2023-03-14T10:10:20.051Z,99.99
2023-03-14T10:11:19.940Z,99.99
2023-03-14T10:12:20.008Z,99.99
2023-03-14T10:13:19.897Z,99.27
2023-03-14T10:14:19.877Z,99.57
2023-03-14T10:15:19.863Z,99.99
2023-03-14T10:16:19.893Z,99.99
2023-03-14T10:17:19.826Z,99.99
2023-03-14T10:18:19.814Z,99.99
2023-03-14T10:19:19.810Z,99.99
2023-03-14T10:20:19.782Z,99.99
2023-03-14T10:21:19.824Z,99.99
2023-03-14T10:22:19.750Z,99.99
2023-03-14T10:23:19.725Z,99.99
2023-03-14T10:24:19.703Z,99.99
2023-03-14T10:25:19.689Z,99.99
2023-03-14T10:26:19.696Z,99.99
2023-03-14T10:27:19.687Z,99.99
2023-03-14T10:28:19.635Z,99.99
2023-03-14T10:29:19.616Z,99.99
2023-03-14T10:30:19.597Z,99.99
2023-03-14T10:31:19.622Z,99.99
2023-03-14T10:32:19.664Z,99.99
2023-03-14T10:33:19.558Z,99.99
2023-03-14T10:34:19.531Z,99.99
2023-03-14T10:35:19.512Z,99.99
2023-03-14T10:36:19.508Z,99.99
2023-03-14T10:37:19.623Z,99.99
2023-03-14T10:38:19.455Z,99.99
2023-03-14T10:39:19.451Z,99.99
2023-03-14T10:40:19.422Z,99.99
2023-03-14T10:41:19.402Z,99.99
2023-03-14T10:42:19.390Z,99.99
2023-03-14T10:43:19.370Z,99.99
2023-03-14T10:44:19.345Z,99.99
2023-03-14T10:45:19.331Z,99.99
2023-03-14T10:46:19.338Z,99.99
2023-03-14T10:47:19.362Z,99.99
2023-03-14T10:48:19.275Z,99.99
2023-03-14T10:49:19.257Z,99.99
2023-03-14T10:50:19.237Z,99.99
2023-03-14T10:51:19.239Z,99.99
2023-03-14T10:52:19.208Z,99.99
2023-03-14T10:53:19.215Z,99.99
2023-03-14T10:54:19.164Z,99.99
2023-03-14T10:55:19.146Z,99.99
2023-03-14T10:56:19.145Z,99.99
2023-03-14T10:57:19.163Z,99.99
2023-03-14T10:58:19.117Z,99.99
2023-03-14T10:59:19.234Z,99.99
2023-03-14T11:00:19.051Z,99.99
2023-03-14T11:01:19.105Z,99.99
2023-03-14T11:02:19.012Z,99.99
2023-03-14T11:03:19.024Z,99.99
2023-03-14T11:04:19.033Z,99.99
2023-03-14T11:05:18.958Z,99.99
2023-03-14T11:06:18.935Z,99.99
2023-03-14T11:07:18.919Z,99.99
2023-03-14T11:08:18.950Z,99.99
2023-03-14T11:09:18.901Z,99.99
2023-03-14T11:10:18.862Z,99.99
2023-03-14T11:11:18.851Z,99.99
2023-03-14T11:12:18.833Z,99.99
2023-03-14T11:13:18.821Z,99.99
2023-03-14T11:14:18.827Z,99.99
2023-03-14T11:15:18.767Z,99.99
2023-03-14T11:16:18.816Z,99.99
2023-03-14T11:17:18.734Z,99.99
2023-03-14T11:18:18.712Z,99.99
2023-03-14T11:19:18.744Z,99.99
2023-03-14T11:20:18.673Z,99.99
2023-03-14T11:21:18.713Z,99.99
2023-03-14T11:22:18.641Z,99.99
2023-03-14T11:23:18.649Z,99.99
2023-03-14T11:24:18.598Z,99.99
2023-03-14T11:25:18.581Z,99.99
2023-03-14T11:26:18.568Z,99.99
2023-03-14T11:27:20.038Z,99.99
2023-03-14T11:28:18.518Z,99.99
2023-03-14T11:29:18.497Z,99.99
2023-03-14T11:30:18.532Z,99.99
2023-03-14T11:31:18.549Z,99.99
2023-03-14T11:32:18.478Z,99.99
2023-03-14T11:33:18.424Z,99.99
2023-03-14T11:34:18.433Z,99.99
2023-03-14T11:35:18.382Z,99.99
2023-03-14T11:36:18.381Z,99.99
2023-03-14T11:37:18.373Z,99.99
2023-03-14T11:38:18.351Z,99.99
2023-03-14T11:39:18.317Z,99.99
2023-03-14T11:40:18.285Z,99.99
2023-03-14T11:41:18.360Z,99.99
2023-03-14T11:42:18.458Z,99.99
2023-03-14T11:43:18.312Z,99.99
2023-03-14T11:44:18.211Z,99.99
2023-03-14T11:45:18.221Z,99.99
2023-03-14T11:46:18.218Z,99.99
2023-03-14T11:47:18.188Z,99.99
2023-03-14T11:48:18.135Z,99.99
2023-03-14T11:49:18.119Z,99.99
2023-03-14T11:50:18.117Z,99.99
2023-03-14T11:51:18.199Z,99.99
2023-03-14T11:52:18.057Z,99.99
2023-03-14T11:53:18.037Z,99.99
2023-03-14T11:54:18.023Z,99.99
2023-03-14T11:55:18.001Z,99.56
2023-03-14T11:56:17.993Z,99.99
2023-03-14T11:57:17.997Z,99.99
2023-03-14T11:58:17.939Z,99.46
2023-03-14T11:59:17.970Z,99.77
2023-03-14T12:00:17.912Z,98.21
2023-03-14T12:01:17.882Z,98.83
2023-03-14T12:02:17.906Z,98.69
2023-03-14T12:03:17.855Z,98.73
2023-03-14T12:04:17.888Z,97.96
2023-03-14T12:05:17.882Z,99.31
2023-03-14T12:06:18.535Z,99.62
2023-03-14T12:07:17.766Z,99.52
2023-03-14T12:08:17.757Z,99.52
2023-03-14T12:09:17.753Z,98.17
2023-03-14T12:10:17.720Z,98.69
2023-03-14T12:11:17.692Z,99.52
2023-03-14T12:12:17.673Z,99.78
2023-03-14T12:13:17.764Z,99.99
2023-03-14T12:14:18.099Z,97.91
2023-03-14T12:15:17.683Z,96.98
2023-03-14T12:16:17.625Z,97.60
2023-03-14T12:17:17.662Z,96.26
2023-03-14T12:18:17.588Z,95.95
2023-03-14T12:19:17.625Z,95.32
2023-03-14T12:20:17.523Z,97.14
2023-03-14T12:21:17.627Z,97.66
2023-03-14T12:22:17.490Z,96.52
2023-03-14T12:23:17.466Z,95.12
2023-03-14T12:24:17.448Z,95.22
2023-03-14T12:25:17.694Z,95.53
2023-03-14T12:26:17.450Z,95.32
2023-03-14T12:27:17.433Z,95.53
2023-03-14T12:28:17.394Z,95.64
2023-03-14T12:29:17.362Z,97.04
2023-03-14T12:30:17.359Z,95.96
2023-03-14T12:31:17.400Z,95.28
2023-03-14T12:32:17.300Z,95.61
2023-03-14T12:33:17.280Z,96.80
2023-03-14T12:34:17.267Z,94.47
2023-03-14T12:35:17.306Z,94.26
2023-03-14T12:36:17.222Z,93.95
2023-03-14T12:37:17.229Z,94.62
2023-03-14T12:38:17.197Z,96.33
2023-03-14T12:39:17.195Z,96.85
2023-03-14T12:40:17.207Z,94.62
2023-03-14T12:41:17.231Z,94.31
2023-03-14T12:42:17.142Z,93.83
2023-03-14T12:43:17.098Z,93.37
2023-03-14T12:44:17.085Z,94.56
2023-03-14T12:45:17.136Z,95.18
2023-03-14T12:46:17.127Z,95.80
2023-03-14T12:47:17.029Z,97.56
2023-03-14T12:48:17.018Z,98.13
2023-03-14T12:49:17.046Z,97.77
2023-03-14T12:50:16.964Z,97.97
2023-03-14T12:51:16.963Z,99.43
2023-03-14T12:52:16.993Z,99.43